»·PEaware :: N5419H KVCV-KLAS

N5419H :: KVCV-KLAS

FLIGHT INFORMATION

Flight Status: Arrived
Operator: Privately registered:
United States
More flights under this callsign
Pilot: J.R. H. (1229)
Aircraft: BOEING 737-800
(B738)
More flights by this aircraft type
Origin: KVCV Socal Logistics
United States
Destination: KLAS McCarran Intl
United States
More flights between these airports :: More routes between these airports
Route: +DAG KEPEC6
File this flight plan on PilotEdge
Remarks:
Altitude:
(Current/Filed)
18,000ft
Speed:
(Current/Filed)
250kts
Departed: 05-Aug-18 11:42 AM
Arrived: 05-Aug-18 12:30 PM
Distance/Time
Traveled:
140nm/0:48
Distance/Time
To Go:
Arrived

Flight Plot

Page will automatically refresh every two minutes.

Flight plan parsing failed; only flown route is shown


Map Options




Map Legend


Flown Route
Filed Route
Departure Airport
Arrival Airport
Navaid (VOR, NDB)
Fix

Horizontal Profiles

Position Reports

Time Latitude Longitude Heading Altitude Ground
Speed
05-Aug-18 11:17 34.584424 -117.381289 315 2880ft 0kts
05-Aug-18 11:18 34.584424 -117.381289 315 2880ft 0kts
05-Aug-18 11:19 34.584424 -117.381289 315 2880ft 0kts
05-Aug-18 11:20 34.584424 -117.381289 315 2880ft 0kts
05-Aug-18 11:21 34.584424 -117.381289 315 2880ft 0kts
05-Aug-18 11:22 34.584424 -117.381289 315 2880ft 0kts
05-Aug-18 11:23 34.584431 -117.381293 327 2880ft 0kts
05-Aug-18 11:24 34.584431 -117.381293 327 2880ft 0kts
05-Aug-18 11:25 34.584431 -117.381293 327 2880ft 0kts
05-Aug-18 11:26 34.584431 -117.381293 327 2880ft 0kts
05-Aug-18 11:27 34.584431 -117.381293 327 2880ft 0kts
05-Aug-18 11:28 34.584431 -117.381293 327 2880ft 0kts
05-Aug-18 11:29 34.584431 -117.381293 327 2880ft 0kts
05-Aug-18 11:30 34.584431 -117.381293 327 2880ft 0kts
05-Aug-18 11:31 34.584431 -117.381293 327 2880ft 0kts
05-Aug-18 11:32 34.584431 -117.381293 327 2880ft 0kts
05-Aug-18 11:33 34.584431 -117.381293 327 2880ft 0kts
05-Aug-18 11:34 34.584431 -117.381293 327 2880ft 0kts
05-Aug-18 11:35 34.584431 -117.381293 327 2880ft 0kts
05-Aug-18 11:36 34.586782 -117.380120 44 2878ft 18kts
05-Aug-18 11:37 34.591905 -117.373967 44 2868ft 31kts
05-Aug-18 11:38 34.593318 -117.370787 90 2862ft 21kts
05-Aug-18 11:39 34.595931 -117.367381 10 2853ft 19kts
05-Aug-18 11:40 34.598715 -117.366721 11 2848ft 0kts
05-Aug-18 11:41 34.598715 -117.366721 11 2848ft 0kts
05-Aug-18 11:42 34.600162 -117.366755 281 2845ft 9kts
05-Aug-18 11:43 34.599051 -117.368317 225 2849ft 51kts
05-Aug-18 11:44 34.568550 -117.403531 237 4156ft 194kts
05-Aug-18 11:45 34.560310 -117.464519 263 6413ft 192kts
05-Aug-18 11:46 34.556109 -117.527275 266 8272ft 215kts
05-Aug-18 11:47 34.552020 -117.607915 267 9823ft 273kts
05-Aug-18 11:48 34.553089 -117.701651 290 11488ft 318kts
05-Aug-18 11:49 34.620903 -117.760438 358 13002ft 325kts
05-Aug-18 11:50 34.690975 -117.705170 67 13875ft 331kts
05-Aug-18 11:51 34.718733 -117.598746 73 16286ft 342kts
05-Aug-18 11:52 34.745869 -117.487973 73 18483ft 354kts
05-Aug-18 11:53 34.773530 -117.374222 73 19011ft 375kts
05-Aug-18 11:54 34.803363 -117.250910 73 19008ft 419kts
05-Aug-18 11:55 34.835352 -117.117655 73 19000ft 431kts
05-Aug-18 11:56 34.867705 -116.981981 73 19000ft 431kts
05-Aug-18 11:57 34.900238 -116.844599 73 19000ft 431kts
05-Aug-18 11:58 34.932223 -116.708461 73 19000ft 431kts
05-Aug-18 11:59 34.968621 -116.572651 57 18993ft 431kts
05-Aug-18 12:00 35.047414 -116.469455 45 19000ft 431kts
05-Aug-18 12:01 35.112229 -116.389015 45 19000ft 431kts
05-Aug-18 12:02 35.191065 -116.290912 45 19000ft 431kts
05-Aug-18 12:03 35.272547 -116.188980 45 19000ft 431kts
05-Aug-18 12:04 35.354425 -116.086081 45 19000ft 431kts
05-Aug-18 12:05 35.434821 -115.984747 45 17130ft 423kts
05-Aug-18 12:06 35.512098 -115.887216 45 14933ft 406kts
05-Aug-18 12:07 35.586827 -115.793075 45 13061ft 368kts
05-Aug-18 12:08 35.651712 -115.711360 45 13063ft 337kts
05-Aug-18 12:09 35.715648 -115.630095 45 13064ft 337kts
05-Aug-18 12:10 35.791680 -115.573672 4 13076ft 338kts
05-Aug-18 12:11 35.884202 -115.567919 2 13063ft 337kts
05-Aug-18 12:12 35.970027 -115.544804 46 13060ft 308kts
05-Aug-18 12:13 36.005168 -115.453063 67 13065ft 302kts
05-Aug-18 12:14 36.029606 -115.356841 91 12997ft 296kts
05-Aug-18 12:15 36.023759 -115.265979 95 12148ft 275kts
05-Aug-18 12:16 36.017137 -115.174629 94 10979ft 270kts
05-Aug-18 12:17 36.011252 -115.088823 94 10414ft 245kts
05-Aug-18 12:18 36.006270 -115.006781 88 9481ft 240kts
05-Aug-18 12:19 36.002468 -114.925305 94 8112ft 247kts
05-Aug-18 12:20 35.997083 -114.841239 94 6570ft 248kts
05-Aug-18 12:21 36.006293 -114.771235 57 6549ft 216kts
05-Aug-18 12:22 36.051785 -114.736099 1 6566ft 190kts
05-Aug-18 12:23 36.084815 -114.770731 255 6617ft 191kts
05-Aug-18 12:24 36.076353 -114.830371 264 6638ft 173kts
05-Aug-18 12:25 36.074015 -114.887507 268 5858ft 166kts
05-Aug-18 12:26 36.073613 -114.936302 269 5111ft 164kts
05-Aug-18 12:27 36.073594 -114.991856 270 4225ft 162kts
05-Aug-18 12:28 36.073818 -115.046972 270 3366ft 160kts
05-Aug-18 12:29 36.073580 -115.101205 269 2500ft 157kts
05-Aug-18 12:30 36.073628 -115.151871 270 2127ft 87kts
05-Aug-18 12:31 36.073608 -115.157636 270 2150ft 14kts

Navigation Log

Ident Type
Flight plan parsing failed, navigation log unavailable